Time;durP1;ratioP1;P1;durP2;ratioP2;P2;SDS_P1;SDS_P2;PMS_P1;PMS_P2;Temp;Humidity;BMP_temperature;BMP_pressure;BME280_temperature;BME280_humidity;BME280_pressure;Samples;Min_cycle;Max_cycle;Signal;HPM_P1;HPM_P2
2022/06/21 00:01:08;;;;;;;2.65;1.75;;;17.30;54.10;;;17.74;46.40;97586.63;5024022;28;20348;-48
2022/06/21 00:03:37;;;;;;;1.85;1.58;;;17.30;53.80;;;17.71;46.53;97594.09;5024168;28;20362;-52
2022/06/21 00:06:05;;;;;;;1.42;1.33;;;17.30;54.30;;;17.66;46.62;97603.81;5024328;28;20045;-50
2022/06/21 00:08:36;;;;;;;2.47;1.50;;;17.20;54.30;;;17.61;46.78;97596.38;5024011;28;20049;-47
2022/06/21 00:11:26;;;;;;;2.47;1.25;;;17.20;54.70;;;17.55;47.07;97596.41;5023359;28;20052;-47
2022/06/21 00:13:55;;;;;;;2.38;1.92;;;17.10;55.10;;;17.50;47.16;97592.44;5023250;28;20053;-48
2022/06/21 00:16:26;;;;;;;1.75;1.55;;;17.00;55.30;;;17.49;47.29;97598.88;5024165;28;20071;-50
2022/06/21 00:18:55;;;;;;;2.85;1.60;;;17.00;55.60;;;17.49;47.20;97598.88;5022049;28;20051;-51
2022/06/21 00:21:28;;;;;;;2.47;1.70;;;17.00;55.50;;;17.49;47.63;97595.34;5022634;28;20054;-46
2022/06/21 00:23:56;;;;;;;;;;;17.00;55.70;;;17.42;47.61;97597.22;5023555;28;20042;-46
2022/06/21 00:26:27;;;;;;;3.15;1.80;;;17.00;56.70;;;17.46;47.45;97590.38;5024204;28;19924;-50
2022/06/21 00:28:57;;;;;;;2.33;1.80;;;17.00;56.10;;;17.48;47.70;97591.81;5022567;28;20054;-52
2022/06/21 00:31:35;;;;;;;2.47;1.70;;;17.00;56.00;;;17.47;47.67;97583.97;5022642;28;20064;-50
2022/06/21 00:34:20;;;;;;;2.25;1.67;;;17.00;56.10;;;17.45;47.72;97594.94;5022710;28;20244;-48
2022/06/21 00:36:48;;;;;;;1.77;1.65;;;17.00;56.40;;;17.41;48.07;97593.69;5023075;28;20046;-48
2022/06/21 00:39:19;;;;;;;2.60;1.70;;;17.00;56.40;;;17.40;48.19;97599.28;5022413;28;20054;-48
2022/06/21 00:42:00;;;;;;;1.75;1.50;;;16.90;56.70;;;17.38;48.43;97596.78;5023766;28;20054;-48
2022/06/21 00:44:48;;;;;;;1.85;1.42;;;16.90;57.40;;;17.36;48.23;97596.16;5022461;28;20041;-47
2022/06/21 00:47:32;;;;;;;1.90;1.50;;;16.90;57.90;;;17.35;48.53;97593.69;5022373;28;20052;-47
2022/06/21 00:50:37;;;;;;;3.08;1.50;;;16.90;57.30;;;17.31;48.73;97587.88;5023417;28;20046;-47
2022/06/21 00:53:16;;;;;;;;;;;16.90;58.50;;;17.26;48.74;97585.81;5023844;28;20080;-49
2022/06/21 00:56:08;;;;;;;4.93;2.10;;;16.80;59.10;;;17.29;48.72;97584.56;5022386;28;19917;-47
2022/06/21 00:58:35;;;;;;;1.85;1.58;;;16.80;58.20;;;17.26;48.57;97580.44;5023029;28;20056;-50
2022/06/21 01:01:15;;;;;;;1.67;1.40;;;16.70;57.70;;;17.26;48.96;97579.59;5023480;28;20056;-49
2022/06/21 01:03:56;;;;;;;2.38;1.70;;;16.80;57.80;;;17.26;48.92;97569.66;5023399;28;20244;-48
2022/06/21 01:06:38;;;;;;;1.55;1.42;;;16.90;58.00;;;17.24;48.76;97568.22;5022373;28;20048;-49
2022/06/21 01:09:17;;;;;;;2.25;1.98;;;16.80;57.90;;;17.20;49.14;97567.81;5022020;28;20049;-47
2022/06/21 01:11:57;;;;;;;2.05;1.80;;;16.80;58.20;;;17.17;49.23;97559.31;5020997;28;20049;-48
2022/06/21 01:14:26;;;;;;;2.00;1.83;;;16.70;57.90;;;17.17;49.27;97556.63;5021933;28;20045;-51
2022/06/21 01:16:54;;;;;;;3.60;1.90;;;16.80;58.00;;;17.15;49.46;97562.19;5023151;28;20052;-50
2022/06/21 01:19:49;;;;;;;2.85;1.88;;;16.70;58.10;;;17.13;49.51;97567.78;5022784;28;20042;-49
2022/06/21 01:22:36;;;;;;;2.42;2.08;;;16.80;59.20;;;17.15;49.40;97567.59;5021600;28;20061;-47
2022/06/21 01:25:39;;;;;;;1.45;1.30;;;16.70;59.20;;;17.12;50.07;97563.44;5022980;28;20129;-49
2022/06/21 01:28:09;;;;;;;3.97;1.98;;;16.70;59.20;;;17.12;49.33;97555.38;5023161;28;20054;-46
2022/06/21 01:30:39;;;;;;;2.08;1.80;;;16.70;58.40;;;17.09;49.38;97557.66;5021687;28;20052;-48
2022/06/21 01:33:09;;;;;;;2.45;2.05;;;16.70;58.30;;;17.06;49.70;97553.50;5021627;28;20050;-48
2022/06/21 01:35:50;;;;;;;1.95;1.85;;;16.70;58.40;;;17.07;49.96;97544.41;5021146;28;20045;-49
2022/06/21 01:38:30;;;;;;;2.28;2.08;;;16.70;58.50;;;17.10;49.93;97530.56;5021655;28;20046;-47
2022/06/21 01:41:18;;;;;;;2.80;2.00;;;16.80;58.70;;;17.09;49.88;97534.25;5022231;28;20066;-48
2022/06/21 01:43:50;;;;;;;2.25;1.98;;;16.70;58.90;;;17.09;49.86;97528.88;5022617;28;20050;-47
2022/06/21 01:46:24;;;;;;;2.47;1.90;;;16.70;58.70;;;17.07;49.86;97522.88;5005381;28;20046;-50
2022/06/21 01:49:00;;;;;;;2.50;1.98;;;16.60;58.60;;;17.04;49.99;97519.78;5020834;28;20052;-52
2022/06/21 01:51:38;;;;;;;3.65;3.28;;;16.70;58.70;;;17.00;49.90;97514.00;5022492;28;20056;-48
2022/06/21 01:54:11;;;;;;;2.22;2.03;;;16.70;58.90;;;16.97;50.14;97510.91;5021198;28;20049;-47
2022/06/21 01:56:40;;;;;;;3.63;2.10;;;16.60;58.90;;;16.96;49.91;97510.03;5021190;28;20099;-49
2022/06/21 01:59:32;;;;;;;3.45;2.15;;;16.60;58.90;;;16.95;50.18;97507.59;5021407;28;20049;-49
2022/06/21 02:02:14;;;;;;;3.03;2.13;;;16.50;60.00;;;16.87;50.14;97509.44;5022343;28;20053;-48
2022/06/21 02:05:13;;;;;;;3.65;2.45;;;16.40;59.70;;;16.82;50.27;97517.25;5021569;28;20053;-46
2022/06/21 02:07:51;;;;;;;4.30;2.90;;;16.40;60.80;;;16.79;50.59;97524.88;5021154;28;20046;-46
2022/06/21 02:10:35;;;;;;;2.70;2.47;;;16.30;60.40;;;16.72;50.58;97520.31;5021637;28;20060;-51
2022/06/21 02:13:17;;;;;;;3.17;2.40;;;16.30;60.40;;;16.71;50.94;97507.91;5021445;28;20052;-48
2022/06/21 02:16:00;;;;;;;3.45;2.60;;;16.30;60.60;;;16.67;50.72;97516.56;5021074;28;20337;-49
2022/06/21 02:18:33;;;;;;;3.67;2.97;;;16.20;60.60;;;16.62;50.66;97509.13;5021297;28;20240;-50
2022/06/21 02:21:16;;;;;;;4.50;2.20;;;16.10;61.00;;;16.58;50.85;97512.44;5021217;28;20049;-48
2022/06/21 02:23:52;;;;;;;2.85;2.58;;;16.00;61.20;;;16.53;50.89;97508.47;5022179;28;20045;-45
2022/06/21 02:26:23;;;;;;;2.35;2.15;;;16.00;61.10;;;16.51;50.87;97488.22;5021167;28;20050;-48
2022/06/21 02:28:51;;;;;;;2.25;2.00;;;16.00;60.80;;;16.47;51.16;97477.03;5020379;28;20276;-47
2022/06/21 02:31:20;;;;;;;2.92;2.35;;;16.10;60.40;;;16.48;51.41;97480.59;5021676;28;20057;-49
2022/06/21 02:33:51;;;;;;;5.95;2.97;;;16.10;60.60;;;16.48;51.23;97491.34;5022182;28;20049;-47
2022/06/21 02:36:28;;;;;;;5.45;2.05;;;16.00;60.70;;;16.46;51.11;97490.69;5022040;28;20046;-48
2022/06/21 02:39:01;;;;;;;4.82;2.30;;;16.00;60.80;;;16.46;51.08;97491.53;5020825;28;20052;-47
2022/06/21 02:41:41;;;;;;;3.40;2.27;;;16.00;60.30;;;16.44;50.93;97482.84;5022153;28;20068;-48
2022/06/21 02:44:41;;;;;;;2.78;2.30;;;16.00;61.00;;;16.41;50.96;97479.72;5026606;28;20623;-46
2022/06/21 02:47:25;;;;;;;2.75;2.45;;;16.00;61.10;;;16.36;51.30;97474.13;5024594;28;20053;-49
2022/06/21 02:49:57;;;;;;;5.35;2.08;;;15.90;61.40;;;16.34;51.22;97480.53;5025015;28;20046;-46
2022/06/21 02:52:32;;;;;;;3.22;2.60;;;15.90;61.20;;;16.32;51.27;97481.75;5024914;28;20332;-46
2022/06/21 02:55:24;;;;;;;4.15;2.22;;;15.80;61.30;;;16.26;51.51;97486.06;5024459;28;20058;-48
2022/06/21 02:58:08;;;;;;;3.45;2.40;;;15.80;62.40;;;16.26;51.42;97493.31;5025901;28;20053;-45
2022/06/21 03:00:36;;;;;;;2.53;2.30;;;15.80;62.00;;;16.25;51.69;97495.19;5024809;28;20049;-52
2022/06/21 03:03:07;;;;;;;2.97;2.38;;;15.70;61.40;;;16.24;51.42;97492.69;5024520;28;20042;-47
2022/06/21 03:05:36;;;;;;;2.78;2.10;;;15.80;61.40;;;16.24;51.37;97495.38;5025616;28;20052;-49
2022/06/21 03:08:06;;;;;;;3.47;2.58;;;15.80;61.10;;;16.21;51.34;97491.25;5025595;28;20361;-49
2022/06/21 03:10:46;;;;;;;2.40;1.92;;;15.70;61.30;;;16.20;51.19;97483.38;5023316;28;20358;-51
2022/06/21 03:13:20;;;;;;;2.70;2.08;;;15.80;61.20;;;16.23;51.10;97469.56;5024527;28;20045;-47
2022/06/21 03:16:00;;;;;;;2.17;1.98;;;15.80;60.60;;;16.24;50.96;97460.44;5025305;28;20046;-47
2022/06/21 03:18:40;;;;;;;3.63;2.38;;;15.80;60.30;;;16.20;50.96;97462.72;5025124;28;20057;-49
2022/06/21 03:21:13;;;;;;;2.83;2.20;;;15.80;60.30;;;16.19;50.82;97454.84;5024090;28;20049;-48
2022/06/21 03:23:45;;;;;;;3.33;2.20;;;15.70;60.30;;;16.18;51.07;97461.25;5024204;28;20048;-48
2022/06/21 03:26:14;;;;;;;4.72;2.20;;;15.70;60.30;;;16.16;50.83;97468.69;5023657;28;20247;-48
2022/06/21 03:28:47;;;;;;;5.05;2.35;;;15.70;60.40;;;16.14;50.85;97469.72;5024854;28;20316;-48
2022/06/21 03:31:30;;;;;;;3.65;2.10;;;15.70;59.80;;;16.15;50.86;97467.88;5025154;28;20049;-48
2022/06/21 03:34:10;;;;;;;2.90;2.07;;;15.70;59.70;;;16.12;50.60;97452.16;5023902;28;20213;-46
2022/06/21 03:36:40;;;;;;;2.97;2.00;;;15.80;59.20;;;16.10;50.73;97454.22;5025040;28;20287;-47
2022/06/21 03:42:19;;;;;;;2.28;2.05;;;15.80;59.20;;;16.14;50.56;97456.28;5023345;28;20058;-46
2022/06/21 03:45:00;;;;;;;2.42;2.00;;;15.80;59.30;;;16.17;50.57;97460.44;5024042;28;20041;-48
2022/06/21 03:47:46;;;;;;;2.88;1.88;;;15.80;58.90;;;16.19;50.40;97465.59;5023899;28;20046;-46
2022/06/21 03:50:18;;;;;;;2.97;2.00;;;15.80;58.40;;;16.16;50.16;97476.75;5024294;28;20280;-48
2022/06/21 03:52:57;;;;;;;4.72;2.05;;;15.80;58.70;;;16.19;50.38;97466.44;5024628;28;20237;-46
2022/06/21 03:56:00;;;;;;;3.72;2.10;;;15.80;58.40;;;16.24;49.97;97465.81;5006844;28;20060;-49
2022/06/21 03:58:53;;;;;;;5.43;2.40;;;15.90;58.10;;;16.31;50.08;97447.88;5024249;28;20056;-48
2022/06/21 04:01:33;;;;;;;2.63;2.22;;;16.00;57.80;;;16.37;50.12;97444.38;5024743;28;20054;-49
2022/06/21 04:04:16;;;;;;;3.45;1.90;;;16.10;57.90;;;16.42;50.06;97438.38;5024343;28;20052;-47
2022/06/21 04:06:58;;;;;;;3.00;2.42;;;16.20;57.90;;;16.46;49.94;97439.63;5023509;28;20042;-48
2022/06/21 04:10:15;;;;;;;4.47;2.00;;;16.20;58.00;;;16.50;50.01;97425.59;5022876;28;20045;-50
2022/06/21 04:12:52;;;;;;;2.60;2.20;;;16.20;58.20;;;16.55;50.03;97424.97;5024475;28;20359;-52
2022/06/21 04:15:31;;;;;;;3.60;3.03;;;16.20;58.30;;;16.58;50.17;97432.66;5023016;28;20060;-48
2022/06/21 04:18:16;;;;;;;2.05;1.80;;;16.20;58.50;;;16.60;50.42;97441.31;5024372;28;20058;-46
2022/06/21 04:21:13;;;;;;;2.65;2.10;;;16.40;58.30;;;16.63;50.09;97448.13;5023332;28;20374;-49
2022/06/21 04:23:48;;;;;;;2.47;2.03;;;16.40;57.90;;;16.69;50.03;97444.63;5023099;28;20052;-47
2022/06/21 04:26:23;;;;;;;2.95;2.35;;;16.40;57.70;;;16.73;49.84;97444.03;5024215;28;20050;-47
2022/06/21 04:29:19;;;;;;;2.58;2.10;;;16.50;57.50;;;16.79;49.37;97445.06;5023687;28;20057;-49
2022/06/21 04:31:57;;;;;;;4.95;2.95;;;16.60;56.60;;;16.85;49.12;97446.97;5024166;28;20255;-49
2022/06/21 04:34:36;;;;;;;3.58;2.30;;;16.60;56.40;;;16.91;49.12;97446.13;5023996;28;20060;-51
2022/06/21 04:37:21;;;;;;;3.72;1.95;;;16.70;56.00;;;16.95;48.90;97441.19;5024021;28;20060;-50
2022/06/21 04:39:57;;;;;;;3.78;3.15;;;16.80;56.30;;;16.98;49.24;97438.06;5022761;28;20054;-49
2022/06/21 04:42:54;;;;;;;2.85;2.25;;;16.70;56.60;;;17.00;49.28;97425.25;5023572;28;20052;-47
2022/06/21 04:46:11;;;;;;;4.00;2.53;;;16.80;57.00;;;16.99;49.69;97431.66;5022603;28;20228;-51
2022/06/21 04:48:55;;;;;;;2.90;2.05;;;16.70;57.70;;;17.01;49.35;97429.59;5023298;28;20046;-50
2022/06/21 04:51:38;;;;;;;2.25;1.80;;;16.70;57.40;;;17.02;49.37;97427.72;5024024;28;20053;-51
2022/06/21 04:54:24;;;;;;;4.25;1.85;;;16.80;57.00;;;17.00;49.30;97430.63;5022301;28;20069;-48
2022/06/21 04:57:16;;;;;;;2.72;1.83;;;16.80;56.60;;;16.99;49.07;97431.66;5023082;28;20075;-49
2022/06/21 04:59:58;;;;;;;2.60;2.30;;;16.80;56.10;;;17.02;49.17;97427.72;5023370;28;20056;-50
2022/06/21 05:02:44;;;;;;;3.15;2.03;;;16.90;56.30;;;17.02;49.04;97435.78;5022350;28;20053;-47
2022/06/21 05:05:33;;;;;;;3.78;1.80;;;16.80;55.70;;;17.05;49.16;97433.50;5023336;28;20045;-49
2022/06/21 05:08:20;;;;;;;2.92;1.83;;;16.80;56.00;;;17.04;48.82;97434.56;5022169;28;20048;-48
2022/06/21 05:10:58;;;;;;;4.97;2.17;;;16.80;55.40;;;17.03;48.66;97435.59;5022700;28;20045;-49
2022/06/21 05:13:54;;;;;;;4.68;2.28;;;16.90;55.60;;;17.02;48.69;97442.00;5023158;28;20388;-48
2022/06/21 05:16:36;;;;;;;3.45;2.00;;;17.00;55.40;;;17.06;48.74;97443.25;5023190;28;20060;-48
2022/06/21 05:19:32;;;;;;;3.25;1.88;;;17.10;54.80;;;17.13;48.37;97438.69;5022985;28;20266;-47
2022/06/21 05:22:16;;;;;;;3.63;2.17;;;17.10;54.10;;;17.18;48.14;97432.69;5023202;28;20336;-51
2022/06/21 05:24:45;;;;;;;3.97;2.38;;;17.20;54.50;;;17.19;48.41;97434.31;5023181;28;20054;-50
2022/06/21 05:27:41;;;;;;;2.72;2.00;;;17.20;54.40;;;17.23;48.10;97421.28;5022023;28;20041;-51
2022/06/21 05:30:33;;;;;;;4.80;2.90;;;17.30;54.00;;;17.32;48.17;97428.94;5023383;28;20048;-50
2022/06/21 05:33:10;;;;;;;3.22;2.13;;;17.30;53.90;;;17.39;48.14;97433.47;5022853;28;20060;-53
2022/06/21 05:35:38;;;;;;;4.30;2.13;;;17.40;54.10;;;17.43;47.72;97422.09;5021915;28;20354;-47
2022/06/21 05:38:23;;;;;;;3.45;3.08;;;17.50;53.80;;;17.52;47.54;97423.53;5022648;28;20070;-50
2022/06/21 05:41:05;;;;;;;3.20;2.13;;;17.60;52.50;;;17.62;47.29;97423.09;5023556;28;20046;-50
2022/06/21 05:43:46;;;;;;;4.85;2.97;;;17.70;52.50;;;17.75;47.09;97424.09;5021221;28;20340;-51
2022/06/21 05:46:20;;;;;;;2.78;2.25;;;17.80;52.50;;;17.86;46.52;97431.53;5021666;28;20049;-49
2022/06/21 05:48:50;;;;;;;3.60;2.67;;;17.90;52.00;;;17.94;46.50;97442.06;5022105;28;20065;-49
2022/06/21 05:51:32;;;;;;;7.78;2.13;;;18.00;52.20;;;18.03;46.38;97434.56;5022706;28;20049;-48
2022/06/21 05:54:14;;;;;;;3.72;2.80;;;18.10;51.70;;;18.12;46.25;97433.28;5021547;28;20072;-46
2022/06/21 05:56:44;;;;;;;3.70;2.00;;;18.20;50.50;;;18.13;45.28;97442.19;5021608;28;20046;-47
2022/06/21 05:59:18;;;;;;;4.15;2.25;;;18.20;50.80;;;18.19;45.96;97439.47;5021270;28;20053;-47
2022/06/21 06:02:13;;;;;;;3.30;2.08;;;18.30;51.10;;;18.27;45.58;97454.56;5022697;28;20264;-46
2022/06/21 06:05:31;;;;;;;4.88;2.60;;;18.40;50.70;;;18.27;44.97;97449.16;5021346;28;20240;-49
2022/06/21 06:08:11;;;;;;;4.10;2.85;;;18.40;48.90;;;18.32;45.27;97449.34;5015860;28;20058;-47
2022/06/21 06:10:43;;;;;;;5.20;2.20;;;18.40;50.00;;;18.33;44.77;97456.38;5020996;28;20056;-51
2022/06/21 06:13:25;;;;;;;3.22;2.30;;;18.50;50.10;;;18.39;45.21;97460.91;5021411;28;20050;-53
2022/06/21 06:15:58;;;;;;;3.58;2.15;;;18.50;50.20;;;18.44;45.21;97457.59;5021289;28;20060;-45
2022/06/21 06:18:59;;;;;;;5.30;2.78;;;18.50;50.50;;;18.47;45.24;97452.56;5021513;28;20052;-47
2022/06/21 06:21:49;;;;;;;4.45;2.33;;;18.60;50.60;;;18.49;45.04;97455.91;5022758;28;20054;-46
2022/06/21 06:24:34;;;;;;;4.05;2.28;;;18.60;49.20;;;18.53;45.02;97450.88;5021096;28;20056;-47
2022/06/21 06:27:18;;;;;;;3.45;2.65;;;18.50;50.30;;;18.57;44.97;97453.97;5021040;28;20068;-49
2022/06/21 06:29:51;;;;;;;3.45;2.30;;;18.50;50.30;;;18.60;45.10;97448.97;5021113;28;20050;-47
2022/06/21 06:32:25;;;;;;;6.13;2.53;;;18.60;50.40;;;18.63;44.78;97456.63;5020808;28;20050;-50
2022/06/21 06:34:55;;;;;;;4.32;2.10;;;18.60;50.40;;;18.67;44.72;97457.84;5021232;28;20072;-47
2022/06/21 06:37:37;;;;;;;3.88;1.80;;;18.70;50.00;;;18.71;44.88;97458.25;5022203;28;20056;-47
2022/06/21 06:40:15;;;;;;;3.40;2.20;;;18.80;49.20;;;18.78;44.81;97456.31;5022049;28;20056;-49
2022/06/21 06:42:44;;;;;;;4.00;2.65;;;18.80;49.90;;;18.83;44.67;97451.13;5021155;28;20060;-46
2022/06/21 06:45:20;;;;;;;4.95;2.63;;;18.90;49.90;;;18.88;44.64;97445.91;5021833;28;20061;-49
2022/06/21 06:48:03;;;;;;;4.25;2.47;;;18.90;49.80;;;18.91;44.68;97438.44;5021624;28;20046;-48
2022/06/21 06:50:51;;;;;;;2.73;2.27;;;19.00;49.00;;;18.98;44.43;97439.19;5021030;28;20045;-48
2022/06/21 06:53:30;;;;;;;3.53;2.15;;;19.00;49.00;;;19.04;44.04;97439.16;5021186;28;20052;-48
2022/06/21 06:56:08;;;;;;;4.20;2.05;;;19.10;49.00;;;19.07;44.07;97437.88;5021845;28;20060;-48
2022/06/21 06:58:50;;;;;;;7.78;2.33;;;19.20;48.50;;;19.15;44.08;97439.47;5021774;28;20050;-46
2022/06/21 07:01:57;;;;;;;7.05;2.60;;;19.20;48.80;;;19.16;44.14;97436.56;5021828;28;20054;-49
2022/06/21 07:04:35;;;;;;;3.30;2.30;;;19.30;48.30;;;19.25;43.91;97440.63;5020819;28;20049;-45
2022/06/21 07:07:17;;;;;;;3.80;2.80;;;19.30;48.90;;;19.31;43.64;97448.88;5021096;28;20054;-48
2022/06/21 07:09:55;;;;;;;4.65;2.30;;;19.40;48.10;;;19.35;43.50;97455.47;5020821;28;20344;-47
2022/06/21 07:12:28;;;;;;;6.93;2.63;;;19.50;48.10;;;19.43;43.71;97458.72;5020791;28;20052;-48
2022/06/21 07:14:58;;;;;;;4.22;2.72;;;19.50;48.30;;;19.50;43.65;97455.94;5020706;28;20042;-47
2022/06/21 07:17:50;;;;;;;4.88;2.28;;;19.70;48.30;;;19.58;42.83;97463.78;5020757;28;20045;-49
2022/06/21 07:20:27;;;;;;;5.35;2.00;;;19.80;48.00;;;19.69;42.98;97470.31;5021793;28;20049;-49
2022/06/21 07:22:56;;;;;;;4.25;2.42;;;19.90;47.10;;;19.72;42.83;97475.31;5021701;28;20148;-48
2022/06/21 07:25:54;;;;;;;2.83;2.00;;;20.00;46.90;;;19.85;42.31;97483.25;5020022;28;20050;-46
2022/06/21 07:28:32;;;;;;;4.03;2.08;;;20.20;46.30;;;19.95;42.21;97480.03;5022878;28;20049;-50
2022/06/21 07:31:15;;;;;;;2.80;2.13;;;20.40;45.80;;;20.04;42.48;97475.97;5025264;28;20244;-50
2022/06/21 07:34:25;;;;;;;3.77;2.70;;;20.50;45.60;;;20.14;42.28;97469.19;5025070;28;20050;-47
2022/06/21 07:37:12;;;;;;;3.55;2.20;;;20.60;45.10;;;20.27;42.04;97469.03;5024171;28;20066;-47
2022/06/21 07:39:50;;;;;;;5.40;2.75;;;20.70;44.30;;;20.37;42.04;97460.38;5024858;28;20056;-49
2022/06/21 07:42:40;;;;;;;3.45;2.53;;;20.70;45.90;;;20.44;42.03;97459.25;5025011;28;20372;-48
2022/06/21 07:45:20;;;;;;;5.28;2.38;;;20.80;44.20;;;20.51;41.68;97448.34;5024550;28;20056;-47
2022/06/21 07:48:14;;;;;;;3.17;2.33;;;20.80;45.30;;;20.54;41.42;97428.94;5024777;28;20048;-47
2022/06/21 07:50:45;;;;;;;;;;;20.80;44.50;;;20.47;40.47;97414.69;5025381;28;20052;-49
2022/06/21 07:53:31;;;;;;;4.28;2.10;;;20.80;43.90;;;20.55;40.73;97400.88;5024649;28;19943;-46
2022/06/21 07:56:13;;;;;;;4.20;1.83;;;20.80;43.90;;;20.60;41.06;97389.38;5024403;28;20061;-48
2022/06/21 07:59:03;;;;;;;3.20;2.30;;;20.70;44.30;;;20.64;40.63;97382.44;5024612;28;20116;-49
2022/06/21 08:07:38;;;;;;;6.00;2.80;;;21.00;43.20;;;20.72;40.45;97379.41;5024387;28;20049;-46
2022/06/21 08:10:18;;;;;;;5.22;2.08;;;21.10;44.10;;;20.74;40.67;97371.88;5022874;28;20087;-50
2022/06/21 08:12:48;;;;;;;3.72;2.25;;;21.10;42.90;;;20.79;40.74;97355.78;5023909;28;20060;-50
2022/06/21 08:15:17;;;;;;;3.08;2.20;;;21.10;44.10;;;20.83;40.42;97359.66;5023051;28;20049;-49
2022/06/21 08:18:04;;;;;;;6.90;3.03;;;21.20;44.10;;;20.84;39.36;97369.44;5024238;28;20042;-50
2022/06/21 08:20:45;;;;;;;3.72;2.15;;;21.30;42.60;;;20.92;40.43;97391.78;5024220;28;20050;-48
2022/06/21 08:23:28;;;;;;;4.68;1.85;;;21.40;43.20;;;21.05;39.83;97418.63;5023225;28;20264;-52
2022/06/21 08:26:15;;;;;;;3.67;2.20;;;21.50;42.70;;;21.13;38.89;97415.59;5023547;28;20229;-48
2022/06/21 08:29:29;;;;;;;3.03;2.33;;;21.60;41.30;;;21.27;40.15;97408.06;5024514;28;20467;-46
2022/06/21 08:32:31;;;;;;;3.38;2.20;;;21.70;41.60;;;;;;5041606;28;20063;-47
2022/06/21 08:35:32;;;;;;;3.83;2.28;;;21.90;41.40;;;21.44;39.49;97408.19;5041425;28;20352;-46
2022/06/21 08:38:33;;;;;;;2.50;2.20;;;21.80;42.00;;;21.49;38.99;97415.59;5024104;28;20349;-49
2022/06/21 08:48:35;;;;;;;5.03;2.30;;;22.00;40.60;;;21.74;38.24;97415.34;5023400;28;20063;-49
2022/06/21 08:51:17;;;;;;;5.43;2.15;;;22.20;40.30;;;21.81;38.45;97416.03;5023816;28;20050;-50
2022/06/21 08:54:12;;;;;;;3.22;2.17;;;22.30;41.60;;;21.83;38.29;97403.91;5023810;28;20068;-46
2022/06/21 08:57:03;;;;;;;2.92;2.15;;;22.40;41.00;;;21.94;38.74;97387.84;5023578;28;20046;-47
2022/06/21 09:00:02;;;;;;;4.65;2.92;;;22.40;40.40;;;22.03;38.57;97387.22;5022619;28;20046;-49
2022/06/21 09:02:56;;;;;;;4.75;3.85;;;22.50;40.60;;;22.10;38.26;97368.13;5023957;28;20058;-51
2022/06/21 09:05:27;;;;;;;4.40;2.92;;;22.60;40.20;;;22.19;38.43;97368.53;5023344;28;20048;-48
2022/06/21 09:08:36;;;;;;;5.22;2.25;;;22.70;41.40;;;22.26;37.90;97377.38;5022195;28;20049;-47
2022/06/21 09:11:46;;;;;;;3.80;2.17;;;22.80;40.80;;;22.26;37.53;97384.69;5021569;28;20046;-50
2022/06/21 09:14:44;;;;;;;4.32;2.65;;;22.80;39.90;;;22.23;37.49;97386.78;5023190;28;20359;-47
2022/06/21 09:17:46;;;;;;;4.28;2.20;;;22.70;40.70;;;22.19;37.75;97382.09;5023187;28;20058;-49
2022/06/21 09:20:48;;;;;;;2.72;2.40;;;22.60;39.70;;;22.18;38.08;97377.75;5008372;28;20057;-47
2022/06/21 09:23:45;;;;;;;3.33;1.92;;;22.50;40.60;;;22.24;38.59;97390.31;5023104;28;20352;-46
2022/06/21 09:26:34;;;;;;;4.60;2.60;;;22.60;40.90;;;22.27;37.24;97391.75;5021987;28;20041;-51
2022/06/21 09:29:29;;;;;;;4.90;2.47;;;22.70;39.70;;;22.32;38.13;97383.72;5023116;28;20057;-49
2022/06/21 09:32:33;;;;;;;5.15;2.53;;;22.80;40.20;;;22.34;38.18;97382.41;5023100;28;20050;-50
2022/06/21 09:35:40;;;;;;;4.32;2.40;;;22.80;40.20;;;22.38;37.94;97371.91;5021878;28;20045;-50
2022/06/21 09:38:36;;;;;;;4.28;2.58;;;22.80;41.00;;;22.39;37.68;97379.81;5023223;28;20049;-49
2022/06/21 09:41:21;;;;;;;5.55;2.63;;;22.80;40.40;;;22.48;37.99;97387.53;5022068;28;20044;-46
2022/06/21 09:44:22;;;;;;;6.90;3.13;;;22.90;40.80;;;22.49;37.71;97389.16;5021983;28;20352;-45
2022/06/21 09:47:28;;;;;;;3.78;2.42;;;23.00;40.10;;;22.50;37.97;97380.78;5023054;28;20046;-46
2022/06/21 09:50:24;;;;;;;2.83;2.20;;;22.90;41.00;;;22.53;38.37;97374.06;5023170;28;20217;-48
2022/06/21 09:53:22;;;;;;;3.92;2.97;;;22.90;41.20;;;22.62;38.40;97364.44;5020618;28;20064;-52
2022/06/21 09:56:22;;;;;;;4.18;2.50;;;23.00;41.50;;;22.68;38.51;97366.19;5021617;28;20041;-49
2022/06/21 09:59:07;;;;;;;3.92;3.53;;;23.10;41.80;;;22.78;38.80;97368.25;5021468;28;20042;-47
2022/06/21 10:01:52;;;;;;;4.22;2.63;;;23.20;41.60;;;22.80;38.12;97363.41;5022601;28;20046;-48
2022/06/21 10:04:40;;;;;;;5.28;3.30;;;23.20;40.80;;;22.82;38.80;97355.84;5021449;28;20050;-49
2022/06/21 10:07:46;;;;;;;3.53;2.90;;;23.20;41.50;;;22.86;38.34;97351.56;5022345;28;20042;-48
2022/06/21 10:11:21;;;;;;;4.75;2.40;;;23.30;41.90;;;22.91;38.31;97348.09;5021591;28;20420;-51
2022/06/21 10:14:02;;;;;;;4.88;3.05;;;23.30;41.20;;;22.95;38.78;97352.78;5013596;28;20061;-46
2022/06/21 10:17:13;;;;;;;4.82;3.35;;;23.40;42.30;;;22.96;38.48;97345.47;5021218;28;20062;-47
2022/06/21 10:20:18;;;;;;;5.00;3.80;;;23.40;41.80;;;23.02;38.29;97336.31;5027803;28;20058;-46
2022/06/21 10:23:10;;;;;;;5.68;3.75;;;23.40;41.10;;;23.07;38.31;97333.72;5022348;28;20284;-46
2022/06/21 10:26:09;;;;;;;6.18;2.63;;;23.40;41.20;;;23.08;38.47;97338.06;5022179;28;20252;-47
2022/06/21 10:29:14;;;;;;;4.75;2.72;;;23.50;42.00;;;23.12;38.27;97325.63;5022059;28;20046;-48
2022/06/21 10:32:10;;;;;;;3.83;2.90;;;23.50;41.30;;;23.18;38.68;97316.47;5022334;28;20232;-47
2022/06/21 10:35:00;;;;;;;4.68;2.60;;;23.50;42.20;;;23.22;38.78;97314.09;5022112;28;20050;-50
2022/06/21 10:37:46;;;;;;;4.28;2.97;;;23.60;41.70;;;23.23;39.03;97314.94;5021939;28;20061;-47
2022/06/21 10:40:53;;;;;;;5.53;3.05;;;23.60;42.40;;;23.24;38.72;97322.81;5022186;28;20049;-49
2022/06/21 10:43:26;;;;;;;4.25;2.70;;;23.60;42.00;;;23.32;38.64;97321.56;5021853;28;20348;-49
2022/06/21 10:46:08;;;;;;;4.55;2.80;;;23.70;41.90;;;23.36;38.50;97307.25;5022101;28;20113;-48
2022/06/21 10:49:04;;;;;;;6.80;4.60;;;23.70;41.80;;;23.39;38.69;97298.56;5020635;28;20050;-50
2022/06/21 10:52:03;;;;;;;7.03;2.90;;;23.80;41.80;;;23.47;39.17;97304.66;5022106;28;20046;-51
2022/06/21 10:54:59;;;;;;;5.50;3.80;;;23.80;42.30;;;23.51;39.36;97300.34;5020828;28;20046;-49
2022/06/21 10:57:57;;;;;;;4.05;2.90;;;23.90;42.90;;;23.57;39.17;97302.91;5022217;28;20350;-51
2022/06/21 11:04:09;;;;;;;3.88;3.58;;;24.10;43.10;;;23.74;39.00;97305.50;5023696;28;20052;-49
2022/06/21 11:07:24;;;;;;;5.00;3.45;;;24.20;42.40;;;23.78;38.59;97295.00;5025510;28;20056;-48
2022/06/21 11:10:13;;;;;;;7.60;4.40;;;24.20;41.40;;;23.81;38.96;97302.66;5025122;28;20252;-51
2022/06/21 11:12:55;;;;;;;3.85;2.70;;;24.20;42.30;;;23.87;39.05;97304.34;5024652;28;20244;-48
2022/06/21 11:15:52;;;;;;;3.85;3.17;;;24.30;42.60;;;23.94;38.86;97288.66;5025433;28;20056;-49
2022/06/21 11:18:54;;;;;;;4.65;3.17;;;24.40;42.70;;;24.05;38.73;97286.84;5024222;28;20251;-49
2022/06/21 11:22:27;;;;;;;6.63;4.22;;;24.50;42.10;;;24.15;39.01;97280.69;5024629;28;20054;-50
2022/06/21 11:25:44;;;;;;;4.25;3.03;;;24.60;42.10;;;24.22;38.68;97286.75;5025240;28;20050;-47
2022/06/21 11:28:57;;;;;;;5.20;3.88;;;24.80;42.10;;;24.35;39.36;97282.81;5025322;28;20050;-49
2022/06/21 11:32:00;;;;;;;5.93;3.43;;;24.80;42.70;;;24.47;39.18;97280.72;5024360;28;20042;-52
2022/06/21 11:35:00;;;;;;;4.15;3.75;;;25.00;42.30;;;24.56;38.98;97265.59;5024119;28;20281;-50
2022/06/21 11:37:33;;;;;;;5.63;4.25;;;25.10;41.70;;;24.64;38.93;97266.16;5024937;28;20073;-45
2022/06/21 11:40:15;;;;;;;3.95;3.55;;;25.20;41.80;;;24.73;38.53;97268.13;5025414;28;20050;-47
2022/06/21 11:42:55;;;;;;;4.50;3.40;;;25.30;41.80;;;24.77;38.42;97263.00;5025051;28;20050;-50
2022/06/21 11:45:50;;;;;;;3.45;3.10;;;25.40;41.10;;;24.81;38.09;97253.22;5023393;28;20053;-48
2022/06/21 11:49:16;;;;;;;6.22;3.42;;;25.50;40.90;;;24.92;38.22;97241.31;5023622;28;20052;-46
2022/06/21 11:51:55;;;;;;;;;;;25.60;40.70;;;24.99;38.64;97245.69;5024540;28;20045;-50
2022/06/21 11:54:49;;;;;;;7.10;3.60;;;25.70;41.10;;;25.14;38.40;97243.91;5024546;28;19918;-49